createdAt,value
2023-02-16T00:01:04.922Z,-0.10
2023-02-16T00:03:33.331Z,-0.23
2023-02-16T00:06:01.229Z,-0.23
2023-02-16T00:08:29.148Z,-0.30
2023-02-16T00:11:15.671Z,-0.17
2023-02-16T00:13:52.763Z,-0.23
2023-02-16T00:16:23.033Z,-0.17
2023-02-16T00:18:52.177Z,-0.14
2023-02-16T00:21:20.455Z,-0.04
2023-02-16T00:23:48.636Z,-0.15
2023-02-16T00:26:24.736Z,-0.10
2023-02-16T00:28:55.887Z,-0.27
2023-02-16T00:31:27.362Z,-0.07
2023-02-16T00:33:56.658Z,0.09
2023-02-16T00:36:25.090Z,-0.16
2023-02-16T00:38:53.064Z,-0.04
2023-02-16T00:41:42.091Z,-0.09
2023-02-16T00:44:20.852Z,-0.35
2023-02-16T00:46:48.836Z,-0.40
2023-02-16T00:49:22.217Z,-0.42
2023-02-16T00:51:50.497Z,-0.51
2023-02-16T00:54:18.365Z,-0.50
2023-02-16T00:56:46.802Z,-0.37
2023-02-16T00:59:19.413Z,-0.28
2023-02-16T01:01:48.022Z,-0.52
2023-02-16T01:04:23.020Z,-0.52
2023-02-16T01:07:09.586Z,-0.47
2023-02-16T01:09:56.162Z,-0.52
2023-02-16T01:12:24.147Z,-0.39
2023-02-16T01:14:54.862Z,-0.41
2023-02-16T01:17:24.758Z,-0.36
2023-02-16T01:19:55.046Z,-0.25
2023-02-16T01:22:22.933Z,-0.52
2023-02-16T01:24:50.924Z,-0.29
2023-02-16T01:27:19.299Z,-0.40
2023-02-16T01:29:47.387Z,-0.34
2023-02-16T01:32:16.944Z,-0.33
2023-02-16T01:34:44.939Z,-0.48
2023-02-16T01:37:16.441Z,-0.52
2023-02-16T01:39:45.330Z,-0.53
2023-02-16T01:42:44.078Z,-0.58
2023-02-16T01:45:17.734Z,-0.56
2023-02-16T01:47:54.470Z,-0.59
2023-02-16T01:50:48.421Z,-0.50
2023-02-16T01:53:25.779Z,-0.78
2023-02-16T01:55:58.900Z,-0.57
2023-02-16T01:58:42.996Z,-0.74
2023-02-16T02:01:38.606Z,-0.79
2023-02-16T02:05:00.908Z,-0.82
2023-02-16T02:07:41.401Z,-0.58
2023-02-16T02:10:28.298Z,-0.77
2023-02-16T02:13:07.877Z,-0.77
2023-02-16T02:15:37.740Z,-0.73
2023-02-16T02:18:06.698Z,-0.77
2023-02-16T02:21:05.621Z,-0.89
2023-02-16T02:23:49.427Z,-0.87
2023-02-16T02:26:33.007Z,-0.78
2023-02-16T02:29:25.486Z,-0.78
2023-02-16T02:32:25.407Z,-1.03
2023-02-16T02:34:56.282Z,-0.98
2023-02-16T02:37:40.772Z,-0.72
2023-02-16T02:40:28.738Z,-0.92
2023-02-16T02:43:13.354Z,-0.69
2023-02-16T02:45:56.730Z,-0.75
2023-02-16T02:48:33.891Z,-0.69
2023-02-16T02:51:30.597Z,-0.71
2023-02-16T02:54:27.668Z,-0.61
2023-02-16T02:57:19.307Z,-0.63
2023-02-16T03:00:14.305Z,-0.72
2023-02-16T03:02:44.382Z,-0.81
2023-02-16T03:05:15.606Z,-0.64
2023-02-16T03:07:47.129Z,-1.02
2023-02-16T03:10:46.792Z,-0.76
2023-02-16T03:13:36.166Z,-0.85
2023-02-16T03:16:10.405Z,-0.84
2023-02-16T03:19:00.302Z,-0.82
2023-02-16T03:21:47.759Z,-1.04
2023-02-16T03:24:43.847Z,-0.90
2023-02-16T03:27:33.054Z,-0.83
2023-02-16T03:30:04.810Z,-0.66
2023-02-16T03:32:33.127Z,-0.77
2023-02-16T03:35:00.971Z,-0.75
2023-02-16T03:37:28.886Z,-0.97
2023-02-16T03:40:15.337Z,-0.67
2023-02-16T03:42:52.884Z,-0.92
2023-02-16T03:45:22.849Z,-0.85
2023-02-16T03:47:50.722Z,-0.79
2023-02-16T03:50:18.640Z,-0.78
2023-02-16T03:52:46.851Z,-0.65
2023-02-16T03:55:15.396Z,-0.89
2023-02-16T03:57:43.258Z,-0.90
2023-02-16T04:00:11.707Z,-0.74
2023-02-16T04:02:42.242Z,-0.74
2023-02-16T04:05:10.184Z,-0.73
2023-02-16T04:07:40.914Z,-0.79
2023-02-16T04:10:09.034Z,-0.98
2023-02-16T04:12:37.004Z,-0.89
2023-02-16T04:15:07.394Z,-0.86
2023-02-16T04:17:36.200Z,-0.81
2023-02-16T04:20:05.858Z,-0.86
2023-02-16T04:22:33.721Z,-0.86
2023-02-16T04:25:01.565Z,-1.00
2023-02-16T04:27:29.484Z,-0.96
2023-02-16T04:29:57.443Z,-0.90
2023-02-16T04:32:25.457Z,-1.09
2023-02-16T04:34:53.416Z,-0.96
2023-02-16T04:37:21.358Z,-0.95
2023-02-16T04:39:49.239Z,-0.99
2023-02-16T04:42:17.135Z,-0.84
2023-02-16T04:44:45.193Z,-0.81
2023-02-16T04:47:13.110Z,-0.70
2023-02-16T04:49:41.125Z,-0.81
2023-02-16T04:52:09.354Z,-0.87
2023-02-16T04:54:37.253Z,-0.99
2023-02-16T04:57:05.517Z,-0.96
2023-02-16T04:59:33.423Z,-0.90
2023-02-16T05:02:01.362Z,-1.16
2023-02-16T05:04:29.458Z,-0.88
2023-02-16T05:06:57.395Z,-1.17
2023-02-16T05:09:25.500Z,-1.06
2023-02-16T05:12:12.126Z,-1.31
2023-02-16T05:14:43.088Z,-0.98
2023-02-16T05:17:21.512Z,-1.02
2023-02-16T05:19:53.007Z,-1.01
2023-02-16T05:22:21.683Z,-1.05
2023-02-16T05:24:49.595Z,-1.00
2023-02-16T05:27:20.730Z,-1.02
2023-02-16T05:29:49.186Z,-0.91
2023-02-16T05:32:17.534Z,-1.05
2023-02-16T05:34:45.897Z,-1.25
2023-02-16T05:37:15.413Z,-1.13
2023-02-16T05:39:43.958Z,-1.14
2023-02-16T05:42:12.602Z,-1.23
2023-02-16T05:44:40.504Z,-1.11
2023-02-16T05:47:08.680Z,-0.99
2023-02-16T05:49:36.584Z,-1.02
2023-02-16T05:52:04.482Z,-0.94
2023-02-16T05:54:32.412Z,-0.81
2023-02-16T05:57:00.352Z,-0.85
2023-02-16T05:59:28.316Z,-1.06
2023-02-16T06:01:56.338Z,-1.08
2023-02-16T06:04:24.296Z,-1.28
2023-02-16T06:06:52.216Z,-1.42
2023-02-16T06:09:20.810Z,-1.21
2023-02-16T06:11:48.677Z,-1.18
2023-02-16T06:14:19.475Z,-1.20
2023-02-16T06:16:50.109Z,-1.08
2023-02-16T06:19:19.785Z,-1.11
2023-02-16T06:21:48.444Z,-1.05
2023-02-16T06:24:16.339Z,-1.10
2023-02-16T06:26:44.471Z,-1.00
2023-02-16T06:29:12.317Z,-1.19
2023-02-16T06:31:40.267Z,-1.11
2023-02-16T06:34:08.254Z,-1.24
2023-02-16T06:36:36.153Z,-1.12
2023-02-16T06:39:04.320Z,-1.10
2023-02-16T06:41:34.278Z,-1.04
2023-02-16T06:44:04.874Z,-0.90
2023-02-16T06:46:33.317Z,-1.00
2023-02-16T06:49:01.385Z,-1.38
2023-02-16T06:51:29.715Z,-1.37
2023-02-16T06:53:58.026Z,-1.19
2023-02-16T06:56:26.029Z,-1.23
2023-02-16T06:58:53.869Z,-1.12
2023-02-16T07:01:26.022Z,-1.22
2023-02-16T07:03:55.653Z,-1.10
2023-02-16T07:06:29.051Z,-0.98
2023-02-16T07:08:57.125Z,-1.09
2023-02-16T07:11:25.034Z,-1.09
2023-02-16T07:13:52.935Z,-1.02
2023-02-16T07:16:20.843Z,-1.00
2023-02-16T07:18:48.806Z,-1.13
2023-02-16T07:21:16.884Z,-1.17
2023-02-16T07:23:45.428Z,-1.06
2023-02-16T07:26:13.356Z,-1.00
2023-02-16T07:28:41.233Z,-0.86
2023-02-16T07:31:11.727Z,-0.92
2023-02-16T07:33:40.066Z,-1.13
2023-02-16T07:36:09.829Z,-1.21
2023-02-16T07:38:39.065Z,-1.15
2023-02-16T07:41:09.746Z,-1.04
2023-02-16T07:43:39.322Z,-1.12
2023-02-16T07:46:07.584Z,-0.88
2023-02-16T07:48:35.585Z,-0.70
2023-02-16T07:51:04.117Z,-0.90
2023-02-16T07:53:32.429Z,-0.77
2023-02-16T07:56:00.343Z,-0.97
2023-02-16T07:58:28.330Z,-0.95
2023-02-16T08:01:00.777Z,-1.00
2023-02-16T08:03:28.773Z,-0.99
2023-02-16T08:05:56.701Z,-0.84
2023-02-16T08:08:24.584Z,-0.79
2023-02-16T08:10:52.482Z,-1.06
2023-02-16T08:13:20.326Z,-1.01
2023-02-16T08:15:48.294Z,-1.03
2023-02-16T08:18:16.305Z,-0.98
2023-02-16T08:21:02.767Z,-1.00
2023-02-16T08:23:32.062Z,-0.82
2023-02-16T08:25:59.999Z,-0.84
2023-02-16T08:28:29.020Z,-0.85
2023-02-16T08:30:57.251Z,-0.71
2023-02-16T08:33:25.252Z,-0.99
2023-02-16T08:35:53.254Z,-0.90
2023-02-16T08:38:21.199Z,-0.82
2023-02-16T08:40:50.153Z,-0.91
2023-02-16T08:43:18.076Z,-0.88
2023-02-16T08:45:49.534Z,-0.84
2023-02-16T08:48:17.853Z,-0.87
2023-02-16T08:50:53.309Z,-0.73
2023-02-16T08:53:23.185Z,-0.53
2023-02-16T08:55:55.714Z,-0.45
2023-02-16T08:58:24.600Z,-0.25
2023-02-16T09:00:53.305Z,-0.17
2023-02-16T09:03:21.205Z,-0.50
2023-02-16T09:05:52.825Z,-0.59
2023-02-16T09:08:21.656Z,-0.52
2023-02-16T09:10:49.522Z,-0.49
2023-02-16T09:13:17.440Z,-0.45
2023-02-16T09:15:45.389Z,-0.39
2023-02-16T09:18:14.708Z,-0.41
2023-02-16T09:20:46.654Z,-0.33
2023-02-16T09:23:14.868Z,-0.26
2023-02-16T09:25:42.736Z,-0.30
2023-02-16T09:28:10.810Z,-0.42
2023-02-16T09:30:39.639Z,-0.77
2023-02-16T09:33:07.856Z,-0.34
2023-02-16T09:35:39.457Z,-0.31
2023-02-16T09:38:07.867Z,-0.30
2023-02-16T09:40:37.611Z,-0.45
2023-02-16T09:43:38.261Z,-0.42
2023-02-16T09:46:13.239Z,-0.44
2023-02-16T09:48:46.756Z,-0.29
2023-02-16T09:51:33.785Z,-0.26
2023-02-16T09:54:29.391Z,-0.37
2023-02-16T09:57:14.295Z,-0.40
2023-02-16T09:59:48.893Z,-0.46
2023-02-16T10:02:26.732Z,-0.15
2023-02-16T10:05:09.818Z,-0.29
2023-02-16T10:07:51.308Z,-0.34
2023-02-16T10:10:25.402Z,-0.46
2023-02-16T10:13:12.933Z,-0.49
2023-02-16T10:15:44.458Z,-0.28
2023-02-16T10:18:33.581Z,-0.20
2023-02-16T10:21:06.626Z,0.01
2023-02-16T10:23:45.689Z,0.18
2023-02-16T10:26:19.071Z,0.16
2023-02-16T10:28:52.345Z,0.28
2023-02-16T10:31:24.102Z,0.21
2023-02-16T10:34:13.902Z,0.34
2023-02-16T10:37:37.800Z,0.00
2023-02-16T10:40:25.909Z,0.24
2023-02-16T10:43:05.570Z,0.16
2023-02-16T10:45:51.993Z,0.27
2023-02-16T10:48:22.380Z,0.29
2023-02-16T10:51:04.785Z,0.46
2023-02-16T10:53:52.305Z,0.52
2023-02-16T10:56:23.539Z,0.56
2023-02-16T10:58:52.232Z,0.39
2023-02-16T11:01:22.515Z,0.28
2023-02-16T11:03:53.382Z,0.75
2023-02-16T11:06:25.558Z,0.52
2023-02-16T11:09:00.034Z,0.82
2023-02-16T11:11:36.168Z,0.86
2023-02-16T11:14:09.160Z,0.85
2023-02-16T11:16:37.157Z,1.17
2023-02-16T11:19:21.234Z,1.20
2023-02-16T11:21:58.850Z,1.26
2023-02-16T11:24:29.867Z,1.37
2023-02-16T11:27:05.168Z,1.01
2023-02-16T11:29:33.711Z,1.02
2023-02-16T11:32:07.841Z,0.96
2023-02-16T11:34:41.360Z,1.20
2023-02-16T11:37:33.002Z,0.80
2023-02-16T11:40:16.935Z,1.19
2023-02-16T11:42:47.876Z,0.92
2023-02-16T11:45:32.294Z,1.15
2023-02-16T11:48:07.374Z,1.73
2023-02-16T11:50:38.623Z,1.69
2023-02-16T11:53:09.370Z,1.65
2023-02-16T11:55:40.673Z,1.30
2023-02-16T11:58:28.098Z,1.12
2023-02-16T12:01:08.533Z,1.35
2023-02-16T12:04:04.933Z,1.15
2023-02-16T12:07:00.590Z,1.33
2023-02-16T12:09:43.801Z,1.55
2023-02-16T12:12:33.276Z,1.28
2023-02-16T12:15:13.257Z,1.20
2023-02-16T12:18:28.394Z,1.97
2023-02-16T12:21:17.368Z,1.98
2023-02-16T12:24:01.957Z,2.28
2023-02-16T12:26:49.697Z,2.47
2023-02-16T12:29:39.701Z,2.39
2023-02-16T12:32:32.402Z,2.43
2023-02-16T12:35:17.565Z,2.15
2023-02-16T12:38:16.636Z,2.32
2023-02-16T12:41:28.376Z,2.65
2023-02-16T12:44:03.709Z,3.04
2023-02-16T12:46:38.366Z,2.72
2023-02-16T12:49:47.883Z,2.88
2023-02-16T12:52:29.651Z,3.12
2023-02-16T12:55:27.477Z,2.93
2023-02-16T12:58:04.324Z,2.61
2023-02-16T13:00:43.692Z,3.10
2023-02-16T13:03:27.746Z,2.71
2023-02-16T13:06:21.637Z,3.04
2023-02-16T13:09:13.695Z,3.75
2023-02-16T13:11:50.987Z,3.99
2023-02-16T13:14:26.247Z,3.51
2023-02-16T13:16:55.805Z,3.74
2023-02-16T13:19:23.882Z,3.55
2023-02-16T13:21:54.512Z,3.67
2023-02-16T13:24:44.459Z,3.61
2023-02-16T13:27:19.898Z,3.75
2023-02-16T13:30:05.877Z,3.57
2023-02-16T13:32:52.242Z,3.92
2023-02-16T13:35:34.863Z,3.48
2023-02-16T13:38:41.016Z,3.92
2023-02-16T13:41:30.118Z,4.11
2023-02-16T13:44:03.226Z,4.28
2023-02-16T13:46:34.686Z,4.42
2023-02-16T13:49:03.218Z,4.06
2023-02-16T13:51:43.517Z,3.91
2023-02-16T13:54:36.108Z,4.08
2023-02-16T13:57:04.533Z,4.25
2023-02-16T13:59:35.964Z,4.29
2023-02-16T14:02:11.376Z,4.24
2023-02-16T14:04:39.676Z,4.24
2023-02-16T14:07:07.647Z,4.35
2023-02-16T14:09:38.354Z,4.30
2023-02-16T14:12:09.423Z,4.41
2023-02-16T14:14:43.126Z,4.46
2023-02-16T14:17:16.677Z,4.42
2023-02-16T14:20:13.531Z,4.59
2023-02-16T14:23:00.007Z,4.40
2023-02-16T14:25:29.074Z,4.36
2023-02-16T14:28:03.019Z,4.40
2023-02-16T14:30:56.365Z,4.47
2023-02-16T14:33:41.242Z,4.40
2023-02-16T14:36:13.805Z,4.49
2023-02-16T14:38:43.164Z,4.50
2023-02-16T14:41:34.697Z,4.49
2023-02-16T14:44:05.262Z,4.62
2023-02-16T14:47:05.449Z,4.59
2023-02-16T14:50:11.841Z,4.65
2023-02-16T14:52:48.516Z,4.58
2023-02-16T14:55:39.556Z,4.54
2023-02-16T14:58:39.566Z,4.69
2023-02-16T15:01:16.459Z,4.51
2023-02-16T15:03:45.420Z,4.48
2023-02-16T15:06:33.678Z,4.46
2023-02-16T15:09:06.524Z,4.63
2023-02-16T15:12:00.692Z,4.52
2023-02-16T15:14:32.554Z,4.54
2023-02-16T15:17:00.826Z,4.63
2023-02-16T15:19:31.139Z,4.52
2023-02-16T15:22:20.748Z,4.32
2023-02-16T15:25:04.497Z,4.23
2023-02-16T15:27:35.349Z,4.22
2023-02-16T15:30:12.559Z,4.37
2023-02-16T15:32:41.340Z,4.37
2023-02-16T15:35:11.946Z,4.37
2023-02-16T15:37:40.537Z,4.31
2023-02-16T15:40:30.154Z,4.30
2023-02-16T15:43:09.827Z,4.28
2023-02-16T15:45:38.326Z,4.36
2023-02-16T15:48:26.349Z,4.20
2023-02-16T15:50:58.520Z,4.18
2023-02-16T15:53:53.549Z,4.15
2023-02-16T15:56:44.685Z,4.05
2023-02-16T15:59:44.858Z,3.99
2023-02-16T16:02:26.355Z,3.94
2023-02-16T16:05:01.008Z,3.84
2023-02-16T16:07:36.081Z,3.74
2023-02-16T16:10:26.252Z,3.70
2023-02-16T16:13:01.986Z,3.65
2023-02-16T16:15:37.985Z,3.54
2023-02-16T16:18:06.713Z,3.43
2023-02-16T16:20:39.173Z,3.28
2023-02-16T16:23:24.865Z,3.20
2023-02-16T16:25:53.151Z,3.25
2023-02-16T16:28:29.633Z,3.27
2023-02-16T16:31:08.046Z,3.25
2023-02-16T16:33:56.113Z,3.12
2023-02-16T16:36:30.356Z,3.05
2023-02-16T16:39:28.713Z,2.88
2023-02-16T16:41:56.760Z,2.79
2023-02-16T16:44:38.810Z,2.72
2023-02-16T16:47:33.094Z,2.60
2023-02-16T16:50:23.203Z,2.64
2023-02-16T16:52:51.512Z,2.63
2023-02-16T16:55:19.338Z,2.64
2023-02-16T16:57:48.901Z,2.67
2023-02-16T17:00:18.735Z,2.64
2023-02-16T17:02:46.989Z,2.54
2023-02-16T17:05:14.841Z,2.52
2023-02-16T17:07:42.824Z,2.45
2023-02-16T17:10:10.738Z,2.33
2023-02-16T17:12:38.643Z,2.29
2023-02-16T17:15:11.356Z,2.37
2023-02-16T17:17:39.669Z,2.35
2023-02-16T17:20:13.914Z,2.27
2023-02-16T17:22:41.998Z,2.31
2023-02-16T17:25:09.905Z,2.20
2023-02-16T17:27:37.796Z,2.10
2023-02-16T17:30:06.225Z,2.10
2023-02-16T17:32:34.244Z,2.04
2023-02-16T17:35:02.180Z,1.97
2023-02-16T17:37:32.789Z,2.06
2023-02-16T17:40:00.647Z,2.01
2023-02-16T17:42:28.581Z,2.00
2023-02-16T17:44:56.522Z,1.93
2023-02-16T17:47:24.418Z,1.93
2023-02-16T17:49:52.268Z,1.93
2023-02-16T17:52:20.263Z,1.89
2023-02-16T17:54:48.142Z,1.84
2023-02-16T17:57:16.984Z,1.83
2023-02-16T17:59:44.845Z,1.82
2023-02-16T18:02:13.029Z,1.81
2023-02-16T18:04:41.228Z,1.90
2023-02-16T18:07:14.104Z,1.74
2023-02-16T18:09:42.075Z,1.72
2023-02-16T18:12:09.978Z,1.64
2023-02-16T18:14:37.953Z,1.64
2023-02-16T18:17:07.961Z,1.53
2023-02-16T18:19:35.947Z,1.43
2023-02-16T18:22:04.978Z,1.37
2023-02-16T18:24:32.908Z,1.32
2023-02-16T18:27:00.743Z,1.29
2023-02-16T18:29:28.916Z,1.35
2023-02-16T18:31:57.348Z,1.24
2023-02-16T18:34:26.298Z,1.26
2023-02-16T18:36:54.321Z,1.21
2023-02-16T18:39:22.305Z,1.26
2023-02-16T18:41:50.246Z,1.20
2023-02-16T18:44:18.102Z,1.24
2023-02-16T18:46:45.942Z,1.10
2023-02-16T18:49:14.136Z,1.14
2023-02-16T18:51:42.152Z,1.40
2023-02-16T18:54:10.039Z,1.24
2023-02-16T18:56:39.101Z,1.31
2023-02-16T18:59:07.066Z,1.33
2023-02-16T19:01:35.305Z,1.25
2023-02-16T19:04:04.100Z,1.14
2023-02-16T19:06:32.788Z,1.16
2023-02-16T19:09:00.658Z,1.17
2023-02-16T19:11:30.735Z,1.09
2023-02-16T19:13:58.679Z,1.05
2023-02-16T19:16:26.602Z,1.07
2023-02-16T19:18:54.510Z,1.06
2023-02-16T19:21:22.602Z,1.07
2023-02-16T19:23:50.488Z,1.07
2023-02-16T19:26:18.979Z,1.17
2023-02-16T19:28:47.109Z,1.14
2023-02-16T19:31:22.205Z,1.17
2023-02-16T19:33:50.741Z,1.01
2023-02-16T19:36:19.428Z,0.77
2023-02-16T19:38:47.886Z,0.82
2023-02-16T19:41:20.050Z,0.77
2023-02-16T19:43:48.628Z,0.86
2023-02-16T19:46:16.647Z,0.78
2023-02-16T19:48:45.997Z,0.71
2023-02-16T19:51:15.050Z,0.83
2023-02-16T19:53:43.985Z,0.85
2023-02-16T19:56:15.625Z,0.93
2023-02-16T19:58:43.627Z,0.96
2023-02-16T20:01:16.830Z,0.93
2023-02-16T20:03:46.114Z,0.91
2023-02-16T20:06:18.889Z,0.93
2023-02-16T20:08:48.827Z,0.83
2023-02-16T20:11:19.972Z,0.72
2023-02-16T20:13:48.032Z,0.79
2023-02-16T20:16:17.473Z,0.70
2023-02-16T20:18:45.972Z,0.72
2023-02-16T20:21:19.973Z,0.84
2023-02-16T20:23:49.387Z,0.90
2023-02-16T20:26:27.962Z,0.95
2023-02-16T20:28:56.645Z,0.89
2023-02-16T20:31:32.286Z,0.91
2023-02-16T20:34:01.135Z,0.93
2023-02-16T20:36:29.286Z,1.08
2023-02-16T20:38:57.299Z,1.02
2023-02-16T20:41:25.305Z,1.11
2023-02-16T20:43:53.690Z,1.06
2023-02-16T20:46:23.563Z,1.09
2023-02-16T20:48:52.184Z,0.97
2023-02-16T20:51:20.505Z,1.02
2023-02-16T20:53:49.005Z,1.29
2023-02-16T20:56:21.332Z,1.15
2023-02-16T20:58:51.356Z,1.18
2023-02-16T21:01:24.110Z,0.98
2023-02-16T21:03:53.446Z,0.98
2023-02-16T21:06:22.311Z,1.01
2023-02-16T21:08:50.819Z,0.96
2023-02-16T21:11:18.726Z,1.02
2023-02-16T21:13:46.715Z,1.01
2023-02-16T21:16:14.901Z,0.99
2023-02-16T21:18:43.088Z,0.93
2023-02-16T21:21:15.729Z,1.03
2023-02-16T21:23:45.628Z,0.95
2023-02-16T21:26:14.012Z,0.94
2023-02-16T21:28:42.102Z,0.99
2023-02-16T21:31:14.108Z,0.95
2023-02-16T21:33:42.349Z,0.82
2023-02-16T21:36:16.436Z,0.80
2023-02-16T21:38:44.861Z,0.66
2023-02-16T21:41:30.386Z,0.67
2023-02-16T21:44:11.139Z,0.67
2023-02-16T21:46:40.898Z,0.61
2023-02-16T21:49:16.242Z,0.63
2023-02-16T21:51:46.477Z,0.68
2023-02-16T21:54:17.217Z,0.60
2023-02-16T21:56:50.227Z,0.63
2023-02-16T21:59:21.801Z,0.44
2023-02-16T22:01:51.418Z,0.51
2023-02-16T22:04:22.407Z,0.43
2023-02-16T22:06:51.325Z,0.42
2023-02-16T22:09:21.626Z,0.46
2023-02-16T22:11:50.237Z,0.48
2023-02-16T22:14:18.731Z,0.25
2023-02-16T22:16:47.832Z,0.33
2023-02-16T22:19:17.921Z,0.29
2023-02-16T22:21:47.690Z,0.45
2023-02-16T22:24:17.963Z,0.36
2023-02-16T22:26:47.435Z,0.37
2023-02-16T22:29:15.559Z,0.28
2023-02-16T22:31:46.389Z,0.28
2023-02-16T22:34:16.866Z,0.32
2023-02-16T22:36:45.768Z,0.45
2023-02-16T22:39:14.513Z,0.47
2023-02-16T22:41:42.639Z,0.55
2023-02-16T22:44:11.807Z,0.48
2023-02-16T22:46:39.910Z,0.59
2023-02-16T22:49:09.560Z,0.48
2023-02-16T22:51:38.563Z,0.49
2023-02-16T22:54:06.791Z,0.59
2023-02-16T22:56:35.069Z,0.60
2023-02-16T22:59:03.071Z,0.74
2023-02-16T23:01:31.438Z,0.45
2023-02-16T23:04:00.907Z,0.58
2023-02-16T23:06:32.916Z,0.53
2023-02-16T23:09:07.235Z,0.50
2023-02-16T23:11:36.187Z,0.37
2023-02-16T23:14:04.714Z,0.43
2023-02-16T23:16:32.718Z,0.48
2023-02-16T23:19:00.828Z,0.56
2023-02-16T23:21:31.501Z,0.62
2023-02-16T23:24:00.558Z,0.63
2023-02-16T23:26:30.782Z,0.60
2023-02-16T23:29:01.892Z,0.57
2023-02-16T23:31:38.626Z,0.55
2023-02-16T23:34:08.571Z,0.49
2023-02-16T23:36:37.854Z,0.35
2023-02-16T23:39:10.344Z,0.32
2023-02-16T23:41:38.859Z,0.42
2023-02-16T23:44:08.298Z,0.51
2023-02-16T23:46:36.263Z,0.60
2023-02-16T23:49:04.142Z,0.63
2023-02-16T23:51:32.274Z,0.56
2023-02-16T23:54:00.206Z,0.63
2023-02-16T23:56:28.532Z,0.57
2023-02-16T23:58:59.927Z,0.63
